Terminal Aerodrome Forecast
Issued by NWS Pueblo, CO

Home | Current Version | Previous Version | Text Only | Print | Product List | Glossary On
Versions: 1 2 3 4 5 6 7 8 9 10 11 12 13 14 15 16 17 18 19 20 21 22 23 24 25 26 27 28 29 30 31 32 33 34 35 36 37 38 39 40 41 42
000
FTUS45 KPUB 051720
TAFALS
TAF
KALS 051720Z 0518/0618 20009KT P6SM VCSH SCT080 BKN120
     FM051900 20011KT P6SM VCTS SCT070CB BKN120
      TEMPO 0519/0523 VRB15G25KT -TSRA BKN060CB
     FM052300 30013KT P6SM VCTS SCT070CB BKN120
     FM060300 33005KT P6SM SCT090 BKN120
     FM060600 VRB05KT P6SM BKN140=

USA.gov is the U.S. government's official web portal to all federal, state and local government web resources and services.